createdAt,value
2023-03-26T00:03:08.886Z,30.39
2023-03-26T00:07:08.821Z,30.38
2023-03-26T00:11:08.853Z,30.36
2023-03-26T00:15:08.963Z,30.41
2023-03-26T00:19:08.998Z,30.46
2023-03-26T00:23:08.989Z,30.41
2023-03-26T00:27:08.985Z,30.42
2023-03-26T00:31:09.035Z,30.44
2023-03-26T00:35:09.114Z,30.46
2023-03-26T00:39:09.264Z,30.47
2023-03-26T00:43:09.177Z,30.47
2023-03-26T00:47:09.202Z,30.48
2023-03-26T00:51:09.248Z,30.49
2023-03-26T00:55:09.218Z,30.49
2023-03-26T00:59:09.228Z,30.50
2023-03-26T01:03:09.290Z,30.52
2023-03-26T01:07:09.184Z,30.50
2023-03-26T01:11:09.173Z,30.53
2023-03-26T01:15:09.238Z,30.54
2023-03-26T01:19:09.268Z,30.53
2023-03-26T01:23:09.245Z,30.52
2023-03-26T01:27:09.228Z,30.56
2023-03-26T01:31:09.255Z,30.54
2023-03-26T01:35:09.273Z,30.54
2023-03-26T01:39:09.366Z,30.52
2023-03-26T01:43:09.430Z,30.57
2023-03-26T01:47:09.423Z,30.57
2023-03-26T01:51:09.493Z,30.59
2023-03-26T01:55:09.566Z,30.58
2023-03-26T01:59:09.550Z,30.57
2023-03-26T02:03:09.654Z,30.60
2023-03-26T02:07:09.533Z,30.61
2023-03-26T02:11:09.886Z,30.61
2023-03-26T02:15:09.547Z,30.65
2023-03-26T02:19:09.564Z,30.66
2023-03-26T02:23:09.562Z,30.67
2023-03-26T02:27:09.586Z,30.68
2023-03-26T02:31:09.680Z,30.67
2023-03-26T02:35:09.670Z,30.68
2023-03-26T16:55:22.878Z,31.08
2023-03-26T16:59:23.257Z,31.11
2023-03-26T17:03:23.350Z,31.10
2023-03-26T17:07:23.527Z,31.13
2023-03-26T17:11:23.441Z,31.16
2023-03-26T17:15:23.469Z,31.14
2023-03-26T22:47:24.613Z,31.37
